Time;durP1;ratioP1;P1;durP2;ratioP2;P2;SDS_P1;SDS_P2;PMS_P1;PMS_P2;Temp;Humidity;BMP_temperature;BMP_pressure;BME280_temperature;BME280_humidity;BME280_pressure;Samples;Min_cycle;Max_cycle;Signal;HPM_P1;HPM_P2
2020/12/24 00:00:59;;;;;;;1.40;0.80;;;22.10;50.70;;;;;;5217494;28;20041;-74
2020/12/24 00:03:30;;;;;;;0.98;0.50;;;22.00;51.50;;;;;;5230783;28;20037;-74
2020/12/24 00:06:00;;;;;;;1.58;0.80;;;22.20;51.00;;;;;;5231508;28;20024;-74
2020/12/24 00:08:31;;;;;;;1.83;0.60;;;22.30;50.80;;;;;;5204826;28;20595;-74
2020/12/24 00:11:02;;;;;;;1.95;0.80;;;22.50;51.70;;;;;;5199915;28;20029;-74
2020/12/24 00:13:32;;;;;;;1.63;0.63;;;22.70;50.40;;;;;;5210066;28;20028;-73
2020/12/24 00:16:03;;;;;;;2.38;0.80;;;22.70;49.40;;;;;;5223218;28;20075;-74
2020/12/24 00:18:33;;;;;;;1.83;0.90;;;22.80;50.20;;;;;;5225347;28;20025;-74
2020/12/24 00:21:08;;;;;;;2.25;0.95;;;22.90;50.50;;;;;;5211237;28;20507;-73
2020/12/24 00:23:38;;;;;;;1.10;0.60;;;22.90;50.00;;;;;;5223504;28;20163;-74
2020/12/24 00:26:09;;;;;;;2.10;0.77;;;23.00;49.50;;;;;;5223249;28;20108;-74
2020/12/24 00:28:39;;;;;;;2.05;0.88;;;23.00;50.60;;;;;;5218779;28;20033;-74
2020/12/24 00:31:10;;;;;;;2.53;0.75;;;23.00;50.30;;;;;;5234421;28;21418;-74
2020/12/24 00:33:40;;;;;;;2.67;0.68;;;22.90;49.10;;;;;;5194503;28;20056;-74
2020/12/24 00:36:11;;;;;;;1.65;0.70;;;22.90;47.80;;;;;;5221094;28;20114;-74
2020/12/24 00:38:41;;;;;;;2.50;0.93;;;22.80;48.80;;;;;;5199771;28;20066;-74
2020/12/24 00:41:12;;;;;;;1.45;0.70;;;22.80;49.20;;;;;;5241021;28;20029;-74
2020/12/24 00:43:42;;;;;;;2.25;0.50;;;22.90;49.60;;;;;;5210273;28;20033;-73
2020/12/24 00:46:13;;;;;;;1.42;0.70;;;22.70;49.10;;;;;;5212338;28;20507;-74
2020/12/24 00:48:43;;;;;;;2.70;0.80;;;22.70;49.30;;;;;;5186498;28;20048;-73
2020/12/24 00:51:14;;;;;;;0.80;0.50;;;22.70;48.30;;;;;;5182715;28;20037;-73
2020/12/24 00:53:44;;;;;;;1.48;0.73;;;22.70;49.20;;;;;;5202367;28;20048;-74
2020/12/24 00:56:15;;;;;;;1.80;0.73;;;22.70;49.50;;;;;;5184993;28;20028;-73
2020/12/24 00:58:45;;;;;;;0.70;0.60;;;22.60;49.00;;;;;;5187727;28;20014;-73
2020/12/24 01:01:16;;;;;;;1.02;0.60;;;22.60;49.40;;;;;;5205195;28;20033;-73
2020/12/24 01:03:46;;;;;;;0.80;0.50;;;22.60;49.50;;;;;;5207006;28;20028;-74
2020/12/24 01:06:17;;;;;;;1.83;0.60;;;22.60;49.70;;;;;;5222307;28;20018;-74
2020/12/24 01:08:47;;;;;;;0.88;0.50;;;22.60;49.50;;;;;;5186246;28;20026;-74
2020/12/24 01:11:18;;;;;;;0.90;0.50;;;22.60;49.50;;;;;;5180088;28;20029;-74
2020/12/24 01:13:48;;;;;;;1.33;0.60;;;22.60;49.10;;;;;;5206540;28;20491;-74
2020/12/24 01:16:19;;;;;;;1.00;0.50;;;22.60;50.30;;;;;;5206756;28;20117;-74
2020/12/24 01:18:49;;;;;;;1.02;0.50;;;22.60;49.60;;;;;;5190113;28;20018;-74
2020/12/24 01:21:20;;;;;;;2.47;0.52;;;22.50;49.20;;;;;;5205758;28;20029;-74
2020/12/24 01:23:50;;;;;;;1.63;0.55;;;22.50;50.20;;;;;;5189980;28;20018;-74
2020/12/24 01:26:21;;;;;;;1.23;0.40;;;22.60;49.90;;;;;;5195575;28;20069;-74
2020/12/24 01:28:51;;;;;;;0.98;0.47;;;22.70;49.50;;;;;;5200668;28;20026;-74
2020/12/24 01:31:22;;;;;;;4.63;0.60;;;22.60;49.10;;;;;;5205411;28;20038;-74
2020/12/24 01:33:53;;;;;;;0.90;0.50;;;22.60;49.20;;;;;;5205840;28;20029;-74
2020/12/24 01:36:23;;;;;;;1.52;0.50;;;22.60;50.10;;;;;;5205832;28;20029;-74
2020/12/24 01:38:54;;;;;;;2.92;0.50;;;22.60;50.30;;;;;;5189992;28;20021;-74
2020/12/24 01:41:24;;;;;;;2.17;0.40;;;22.70;51.70;;;;;;5205730;28;20029;-74
2020/12/24 01:43:55;;;;;;;0.40;0.20;;;22.70;49.10;;;;;;5189760;28;20056;-74
2020/12/24 01:46:25;;;;;;;1.55;0.40;;;22.80;50.20;;;;;;5188439;28;20068;-73
2020/12/24 01:48:56;;;;;;;0.90;0.47;;;22.80;49.40;;;;;;5206172;28;20055;-74
2020/12/24 01:51:28;;;;;;;1.70;0.65;;;22.70;48.10;;;;;;5204644;28;20040;-74
2020/12/24 01:53:59;;;;;;;0.90;0.40;;;22.60;47.20;;;;;;5205842;28;20029;-74
2020/12/24 01:56:29;;;;;;;2.10;0.50;;;22.50;49.20;;;;;;5204963;28;20034;-74
2020/12/24 01:59:01;;;;;;;1.88;0.40;;;22.50;50.30;;;;;;5189439;28;20400;-74
2020/12/24 02:01:31;;;;;;;2.17;0.40;;;22.60;50.20;;;;;;5189839;28;20453;-74
2020/12/24 02:04:02;;;;;;;0.75;0.40;;;22.70;48.20;;;;;;5229002;28;20040;-74
2020/12/24 02:06:32;;;;;;;0.90;0.40;;;22.60;48.10;;;;;;5237758;28;20033;-74
2020/12/24 02:09:03;;;;;;;1.60;0.50;;;22.60;49.70;;;;;;5222802;28;20037;-74
2020/12/24 02:11:34;;;;;;;0.65;0.40;;;22.60;48.50;;;;;;5227290;28;20039;-74
2020/12/24 02:14:05;;;;;;;9.10;0.60;;;22.60;50.40;;;;;;5206827;28;20065;-74
2020/12/24 02:16:36;;;;;;;0.85;0.50;;;22.50;49.70;;;;;;5225530;28;20086;-74
2020/12/24 02:19:06;;;;;;;0.85;0.40;;;22.50;47.80;;;;;;5222233;28;20013;-74
2020/12/24 02:21:37;;;;;;;3.25;0.50;;;22.50;47.60;;;;;;5205799;28;20484;-74
2020/12/24 02:24:08;;;;;;;1.45;0.40;;;22.50;49.30;;;;;;5220704;28;20104;-74
2020/12/24 02:26:38;;;;;;;1.85;0.35;;;22.60;49.40;;;;;;5213317;28;20412;-73
2020/12/24 02:29:09;;;;;;;1.38;0.40;;;22.60;48.90;;;;;;5222523;28;20403;-73
2020/12/24 02:31:39;;;;;;;0.75;0.40;;;22.60;47.20;;;;;;5187913;28;20028;-74
2020/12/24 02:34:10;;;;;;;2.30;0.30;;;22.60;48.90;;;;;;5206831;28;20025;-74
2020/12/24 02:36:41;;;;;;;0.75;0.40;;;22.70;48.20;;;;;;5216989;28;20080;-74
2020/12/24 02:39:11;;;;;;;1.08;0.40;;;22.80;47.50;;;;;;5206604;28;20018;-75
2020/12/24 02:41:42;;;;;;;3.55;0.40;;;22.70;46.20;;;;;;5205513;28;20040;-75
2020/12/24 02:44:12;;;;;;;2.70;0.32;;;22.70;48.10;;;;;;5208970;28;20510;-74
2020/12/24 02:46:43;;;;;;;0.88;0.35;;;22.50;47.20;;;;;;5205607;28;20120;-74
2020/12/24 02:49:13;;;;;;;1.00;0.50;;;22.30;48.40;;;;;;5203631;28;20407;-74
2020/12/24 02:51:44;;;;;;;1.10;0.40;;;22.40;47.90;;;;;;5230359;28;20035;-74
2020/12/24 02:54:14;;;;;;;5.28;0.68;;;22.20;46.80;;;;;;5237498;28;20050;-74
2020/12/24 02:56:45;;;;;;;1.23;0.77;;;22.20;46.20;;;;;;5219141;28;20026;-74
2020/12/24 02:59:15;;;;;;;2.53;1.10;;;22.30;48.60;;;;;;5206001;28;20034;-74
2020/12/24 03:01:46;;;;;;;2.38;1.35;;;22.30;48.40;;;;;;5238970;28;20111;-75
2020/12/24 03:04:16;;;;;;;3.58;1.10;;;22.30;47.60;;;;;;5224616;28;20062;-74
2020/12/24 03:06:47;;;;;;;3.47;0.80;;;22.30;47.60;;;;;;5197504;28;20067;-74
2020/12/24 03:09:17;;;;;;;1.30;0.80;;;22.40;48.60;;;;;;5222233;28;20030;-74
2020/12/24 03:11:49;;;;;;;1.45;0.70;;;22.50;48.10;;;;;;5224531;28;20053;-74
2020/12/24 03:14:20;;;;;;;2.38;0.60;;;22.50;47.00;;;;;;5204700;28;20120;-74
2020/12/24 03:16:50;;;;;;;1.13;0.60;;;22.40;46.40;;;;;;5201086;28;20109;-74
2020/12/24 03:19:21;;;;;;;2.03;0.60;;;22.30;46.60;;;;;;5228590;28;20039;-73
2020/12/24 03:21:51;;;;;;;1.75;0.60;;;22.40;47.30;;;;;;5220331;28;20381;-74
2020/12/24 03:24:22;;;;;;;1.88;0.50;;;22.40;48.00;;;;;;5235196;28;20035;-74
2020/12/24 03:26:52;;;;;;;1.65;0.47;;;22.40;47.60;;;;;;5210145;28;20044;-74
2020/12/24 03:29:23;;;;;;;0.88;0.50;;;22.40;47.70;;;;;;5211519;28;20031;-74
2020/12/24 03:31:53;;;;;;;0.95;0.50;;;22.50;47.70;;;;;;5219666;28;20036;-74
2020/12/24 03:34:24;;;;;;;1.17;0.60;;;22.40;47.70;;;;;;5237069;28;20028;-74
2020/12/24 03:36:54;;;;;;;9.75;0.98;;;22.20;46.20;;;;;;5237926;28;20402;-74
2020/12/24 03:39:25;;;;;;;1.40;0.57;;;22.20;47.60;;;;;;5224262;28;20044;-74
2020/12/24 03:41:55;;;;;;;2.65;0.55;;;22.40;49.30;;;;;;5207286;28;20447;-74
2020/12/24 03:44:26;;;;;;;0.60;0.40;;;22.50;48.80;;;;;;5227653;28;20483;-74
2020/12/24 03:46:56;;;;;;;1.30;0.57;;;22.60;48.70;;;;;;5227772;28;20043;-74
2020/12/24 03:49:27;;;;;;;0.73;0.40;;;22.70;48.20;;;;;;5205623;28;20029;-74
2020/12/24 03:51:57;;;;;;;0.55;0.40;;;22.70;48.40;;;;;;5202962;28;20068;-75
2020/12/24 03:54:28;;;;;;;0.98;0.47;;;22.70;48.10;;;;;;5203766;28;20112;-74
2020/12/24 03:56:58;;;;;;;0.45;0.30;;;22.50;46.80;;;;;;5217798;28;20035;-75
2020/12/24 03:59:29;;;;;;;0.30;0.30;;;22.40;46.90;;;;;;5227890;28;20028;-74
2020/12/24 04:01:59;;;;;;;0.75;0.40;;;22.50;47.70;;;;;;5219196;28;20500;-74
2020/12/24 04:04:30;;;;;;;2.20;0.35;;;22.60;47.20;;;;;;5206625;28;20055;-74
2020/12/24 04:07:00;;;;;;;3.28;0.40;;;22.60;47.70;;;;;;5227611;28;20061;-74
2020/12/24 04:09:31;;;;;;;0.32;0.30;;;22.60;46.80;;;;;;5210317;28;20060;-75
2020/12/24 04:12:01;;;;;;;0.50;0.20;;;22.50;48.10;;;;;;5194825;28;20065;-74
2020/12/24 04:14:32;;;;;;;11.38;0.40;;;22.40;47.80;;;;;;5223720;28;20033;-74
2020/12/24 04:17:02;;;;;;;0.30;0.20;;;22.50;48.30;;;;;;5206447;28;20053;-74
2020/12/24 04:19:33;;;;;;;1.00;0.50;;;22.60;46.70;;;;;;5223371;28;20072;-75
2020/12/24 04:22:03;;;;;;;0.20;0.20;;;22.50;47.00;;;;;;5205143;28;20112;-74
2020/12/24 04:24:34;;;;;;;0.40;0.20;;;22.60;46.80;;;;;;5218796;28;20075;-74
2020/12/24 04:27:04;;;;;;;1.95;0.40;;;22.40;47.30;;;;;;5205615;28;20495;-74
2020/12/24 04:29:35;;;;;;;0.50;0.30;;;22.50;47.80;;;;;;5224479;28;20068;-74
2020/12/24 04:32:05;;;;;;;1.48;0.52;;;22.50;47.30;;;;;;5205986;28;20441;-74
2020/12/24 04:34:36;;;;;;;0.30;0.20;;;22.40;47.70;;;;;;5206173;28;20025;-74
2020/12/24 04:37:06;;;;;;;0.93;0.22;;;22.40;47.10;;;;;;5223039;28;20469;-74
2020/12/24 04:39:37;;;;;;;0.73;0.30;;;22.50;47.90;;;;;;5207370;28;20025;-74
2020/12/24 04:42:07;;;;;;;0.30;0.30;;;22.60;47.60;;;;;;5205941;28;20434;-75
2020/12/24 04:44:38;;;;;;;0.45;0.30;;;22.50;46.90;;;;;;5203424;28;20025;-74
2020/12/24 04:47:08;;;;;;;0.60;0.20;;;22.30;47.00;;;;;;5211690;28;20071;-74
2020/12/24 04:49:39;;;;;;;0.52;0.20;;;22.30;47.80;;;;;;5220454;28;20025;-74
2020/12/24 04:52:14;;;;;;;1.58;0.28;;;22.40;46.50;;;;;;5188024;28;20072;-75
2020/12/24 04:54:45;;;;;;;0.20;0.20;;;22.30;46.10;;;;;;5211881;28;20021;-74
2020/12/24 04:57:15;;;;;;;0.52;0.28;;;22.40;47.00;;;;;;5197973;28;20033;-74
2020/12/24 04:59:46;;;;;;;2.78;0.30;;;22.30;47.00;;;;;;5206904;28;20024;-75
2020/12/24 05:02:16;;;;;;;0.30;0.20;;;22.30;47.20;;;;;;5211645;28;20511;-74
2020/12/24 05:04:48;;;;;;;1.13;0.25;;;22.30;46.40;;;;;;5207024;28;20025;-74
2020/12/24 05:07:18;;;;;;;2.42;0.40;;;22.30;45.70;;;;;;5222539;28;20049;-75
2020/12/24 05:09:50;;;;;;;4.60;0.30;;;22.20;46.80;;;;;;5218841;28;20083;-74
2020/12/24 05:12:28;;;;;;;6.13;0.22;;;22.20;47.10;;;;;;5193551;28;20037;-75
2020/12/24 05:14:58;;;;;;;3.88;0.30;;;22.40;47.20;;;;;;5208547;28;20089;-76
2020/12/24 05:17:29;;;;;;;4.55;0.28;;;22.40;50.50;;;;;;5190818;28;20061;-76
2020/12/24 05:20:04;;;;;;;0.17;0.17;;;22.50;51.60;;;;;;5215647;28;20039;-76
2020/12/24 05:22:34;;;;;;;5.78;0.45;;;22.50;52.10;;;;;;5222978;28;20423;-76
2020/12/24 05:25:06;;;;;;;1.27;0.20;;;22.60;52.20;;;;;;5210478;28;20040;-76
2020/12/24 05:27:37;;;;;;;0.65;0.20;;;22.60;52.40;;;;;;5232553;28;20140;-76
2020/12/24 05:30:08;;;;;;;0.45;0.30;;;22.70;52.50;;;;;;5211164;28;20055;-76
2020/12/24 05:32:40;;;;;;;0.25;0.20;;;22.80;52.50;;;;;;5212753;28;20038;-77
2020/12/24 05:35:12;;;;;;;2.03;0.35;;;22.90;52.50;;;;;;5187972;28;20052;-77
2020/12/24 05:37:42;;;;;;;0.30;0.30;;;22.90;52.40;;;;;;5232930;28;20541;-77
2020/12/24 05:40:28;;;;;;;0.55;0.28;;;23.00;52.30;;;;;;5213503;28;20032;-76
2020/12/24 05:43:00;;;;;;;0.30;0.22;;;23.00;52.50;;;;;;5218979;28;20033;-77
2020/12/24 05:45:32;;;;;;;0.20;0.20;;;23.10;52.50;;;;;;5230583;28;20116;-76
2020/12/24 05:48:10;;;;;;;0.30;0.30;;;23.10;52.60;;;;;;5211570;28;20061;-76
2020/12/24 05:50:44;;;;;;;0.30;0.30;;;23.20;52.30;;;;;;5214528;28;20438;-77
2020/12/24 05:53:16;;;;;;;0.15;0.15;;;23.20;52.40;;;;;;5254693;28;20025;-77
2020/12/24 05:55:46;;;;;;;0.20;0.20;;;23.30;52.40;;;;;;5218284;28;20102;-77
2020/12/24 05:58:17;;;;;;;0.13;0.10;;;23.40;52.10;;;;;;5181508;28;20026;-76
2020/12/24 06:00:47;;;;;;;1.65;0.20;;;23.40;52.00;;;;;;5197319;28;20034;-76
2020/12/24 06:03:19;;;;;;;0.38;0.30;;;23.50;52.00;;;;;;5203480;28;20037;-76
2020/12/24 06:05:53;;;;;;;1.40;0.20;;;23.40;52.10;;;;;;5225010;28;20137;-76
2020/12/24 06:08:25;;;;;;;0.22;0.15;;;23.60;51.80;;;;;;5194831;28;20057;-76
2020/12/24 06:11:08;;;;;;;2.85;0.30;;;23.50;52.20;;;;;;5194510;28;20033;-76
2020/12/24 06:13:43;;;;;;;0.30;0.30;;;23.50;52.10;;;;;;5192446;28;20041;-76
2020/12/24 06:16:14;;;;;;;;;;;23.50;52.20;;;;;;5190750;28;20093;-76
2020/12/24 06:18:45;;;;;;;3.05;0.20;;;23.50;52.00;;;;;;5212203;28;19994;-76
2020/12/24 06:21:17;;;;;;;1.75;0.22;;;23.50;52.20;;;;;;5191651;28;20018;-75
2020/12/24 06:24:00;;;;;;;0.65;0.28;;;23.50;52.30;;;;;;5200631;28;20585;-76
2020/12/24 06:26:33;;;;;;;0.38;0.20;;;23.60;52.00;;;;;;5203100;28;20124;-76
2020/12/24 06:29:03;;;;;;;1.10;0.30;;;23.60;51.70;;;;;;5196966;28;20029;-76
2020/12/24 06:31:34;;;;;;;6.65;0.30;;;23.70;52.30;;;;;;5211939;28;20045;-76
2020/12/24 06:34:28;;;;;;;0.20;0.20;;;23.70;51.80;;;;;;5215680;28;20436;-76
2020/12/24 06:37:13;;;;;;;0.22;0.20;;;23.60;51.80;;;;;;5219748;28;20508;-77
2020/12/24 06:39:50;;;;;;;0.22;0.20;;;23.60;51.60;;;;;;5213277;28;20030;-76
2020/12/24 06:42:39;;;;;;;0.30;0.20;;;23.70;51.60;;;;;;5195146;28;20043;-76
2020/12/24 06:45:30;;;;;;;1.30;0.20;;;23.70;51.50;;;;;;5215648;28;20119;-76
2020/12/24 06:48:20;;;;;;;3.20;0.30;;;23.70;51.60;;;;;;5238307;28;20037;-76
2020/12/24 06:51:02;;;;;;;1.58;0.30;;;23.70;51.70;;;;;;5228065;28;20056;-76
2020/12/24 06:53:37;;;;;;;0.17;0.17;;;23.70;51.60;;;;;;5187294;28;20087;-76
2020/12/24 06:56:22;;;;;;;0.52;0.15;;;24.00;51.10;;;;;;5175232;28;20026;-76
2020/12/24 06:59:00;;;;;;;0.82;0.30;;;24.00;51.00;;;;;;5206446;28;20025;-76
2020/12/24 07:01:32;;;;;;;2.28;0.20;;;23.90;51.20;;;;;;5208677;28;20109;-77
2020/12/24 07:04:03;;;;;;;9.02;0.43;;;24.00;50.90;;;;;;5205337;28;20885;-76
2020/12/24 07:06:40;;;;;;;1.85;0.35;;;24.10;50.60;;;;;;5190052;28;20061;-77
2020/12/24 07:09:12;;;;;;;1.48;0.30;;;23.90;50.90;;;;;;5207131;28;20029;-77
2020/12/24 07:11:45;;;;;;;2.28;0.22;;;23.90;50.80;;;;;;5190712;28;20042;-76
2020/12/24 07:14:51;;;;;;;2.50;0.20;;;24.00;50.40;;;;;;5222952;28;20026;-76
2020/12/24 07:17:21;;;;;;;0.90;0.30;;;24.10;49.80;;;;;;5155628;28;20117;-76
2020/12/24 07:19:53;;;;;;;2.03;0.70;;;24.10;49.80;;;;;;5188570;28;20187;-76
2020/12/24 07:22:23;;;;;;;1.33;1.20;;;24.20;49.50;;;;;;5201570;28;20033;-75
2020/12/24 07:24:58;;;;;;;1.40;1.30;;;24.10;49.50;;;;;;5184800;28;20030;-79
2020/12/24 07:27:28;;;;;;;4.45;1.65;;;24.10;49.50;;;;;;5218368;28;20057;-78
2020/12/24 07:29:59;;;;;;;3.60;1.80;;;24.20;49.20;;;;;;5205671;28;20026;-78
2020/12/24 07:32:29;;;;;;;1.83;1.63;;;24.30;49.00;;;;;;5230874;28;20454;-78
2020/12/24 07:35:00;;;;;;;1.88;1.70;;;24.20;48.90;;;;;;5228317;28;20021;-78
2020/12/24 07:37:30;;;;;;;2.30;2.00;;;24.20;49.10;;;;;;5230976;28;20029;-79
2020/12/24 07:40:01;;;;;;;2.17;1.90;;;24.20;49.00;;;;;;5224014;28;20052;-80
2020/12/24 07:42:31;;;;;;;4.18;2.00;;;24.30;48.80;;;;;;5226966;28;20117;-78
2020/12/24 07:45:02;;;;;;;2.42;2.08;;;24.30;48.70;;;;;;5198433;28;20041;-78
2020/12/24 07:47:33;;;;;;;2.85;1.50;;;24.30;48.70;;;;;;5199597;28;20040;-76
2020/12/24 07:50:03;;;;;;;1.40;1.30;;;24.20;43.70;;;;;;5224321;28;20053;-75
2020/12/24 07:52:34;;;;;;;1.98;1.63;;;23.30;43.50;;;;;;5205695;28;20062;-76
2020/12/24 07:55:08;;;;;;;2.22;1.45;;;22.60;44.30;;;;;;5222167;28;20033;-76
2020/12/24 07:57:39;;;;;;;1.77;1.23;;;22.20;46.10;;;;;;5199909;28;20034;-76
2020/12/24 08:00:09;;;;;;;3.55;1.30;;;21.90;46.30;;;;;;5210974;28;20075;-76
2020/12/24 08:02:40;;;;;;;2.42;1.50;;;21.80;45.90;;;;;;5186069;28;20480;-76
2020/12/24 08:05:10;;;;;;;2.13;1.40;;;21.70;48.10;;;;;;5203677;28;20510;-76
2020/12/24 08:07:41;;;;;;;1.35;1.08;;;21.70;46.40;;;;;;5175142;28;20037;-76
2020/12/24 08:10:12;;;;;;;1.40;1.30;;;21.60;45.70;;;;;;5212795;28;20629;-75
2020/12/24 08:12:42;;;;;;;2.55;1.20;;;21.70;46.90;;;;;;5178335;28;20221;-76
2020/12/24 08:15:14;;;;;;;2.63;1.60;;;22.00;46.10;;;;;;5168870;28;20069;-76
2020/12/24 08:18:04;;;;;;;1.50;1.25;;;22.20;45.50;;;;;;5191627;28;20033;-76
2020/12/24 08:21:06;;;;;;;2.25;1.13;;;22.30;45.60;;;;;;5198671;28;20113;-75
2020/12/24 08:23:52;;;;;;;2.78;1.20;;;22.30;45.70;;;;;;5197093;28;20056;-76
2020/12/24 08:26:23;;;;;;;2.13;1.30;;;22.30;45.80;;;;;;5210235;28;20388;-76
2020/12/24 08:28:57;;;;;;;1.40;1.25;;;22.30;45.90;;;;;;5197318;28;20045;-76
2020/12/24 08:31:29;;;;;;;2.90;1.20;;;22.30;45.30;;;;;;5181801;28;20504;-76
2020/12/24 08:34:03;;;;;;;1.50;1.20;;;22.30;45.90;;;;;;5203918;28;20484;-76
2020/12/24 08:36:40;;;;;;;1.42;1.20;;;22.30;45.40;;;;;;5196156;28;20051;-76
2020/12/24 08:39:12;;;;;;;2.30;1.02;;;22.30;45.40;;;;;;5203100;28;20504;-76
2020/12/24 08:41:52;;;;;;;1.92;1.30;;;22.30;45.30;;;;;;5182330;28;20500;-76
2020/12/24 08:44:23;;;;;;;2.00;1.50;;;22.30;47.10;;;;;;5204370;28;20063;-78
2020/12/24 08:47:08;;;;;;;1.80;1.30;;;22.30;45.70;;;;;;5202162;28;20037;-76
2020/12/24 08:49:39;;;;;;;2.45;1.83;;;22.20;45.40;;;;;;5187542;28;20553;-75
2020/12/24 08:52:10;;;;;;;2.60;2.00;;;22.20;45.30;;;;;;5203481;28;20112;-75
2020/12/24 08:55:19;;;;;;;3.13;2.45;;;22.20;44.90;;;;;;5203400;28;20511;-75
2020/12/24 08:57:51;;;;;;;1.80;1.60;;;22.20;45.00;;;;;;5180816;28;20061;-76
2020/12/24 09:00:23;;;;;;;2.13;1.50;;;22.20;45.40;;;;;;5163687;28;20509;-75
2020/12/24 09:02:53;;;;;;;3.25;1.60;;;22.20;45.50;;;;;;5170528;28;20080;-76
2020/12/24 09:05:27;;;;;;;2.72;1.55;;;22.10;45.80;;;;;;5203637;28;20057;-76
2020/12/24 09:07:57;;;;;;;2.03;1.80;;;22.20;46.00;;;;;;5200216;28;20124;-76
2020/12/24 09:10:28;;;;;;;2.08;1.73;;;22.10;45.60;;;;;;5188491;28;20113;-75
2020/12/24 09:13:02;;;;;;;2.53;1.73;;;21.90;46.00;;;;;;5205595;28;20064;-76
2020/12/24 09:15:33;;;;;;;5.85;1.90;;;21.70;45.60;;;;;;5209775;28;20036;-74
2020/12/24 09:18:05;;;;;;;2.50;1.60;;;21.70;45.70;;;;;;5191907;28;20041;-75
2020/12/24 09:20:35;;;;;;;2.58;1.60;;;21.90;46.00;;;;;;5216127;28;20522;-75
2020/12/24 09:23:13;;;;;;;2.20;1.67;;;21.90;45.90;;;;;;5213196;28;20139;-74
2020/12/24 09:25:45;;;;;;;2.15;1.50;;;22.00;45.80;;;;;;5231956;28;20028;-75
2020/12/24 09:28:22;;;;;;;2.50;1.77;;;22.00;46.20;;;;;;5228098;28;20041;-75
2020/12/24 09:30:59;;;;;;;3.55;2.28;;;22.00;47.00;;;;;;5208522;28;20065;-75
2020/12/24 09:33:33;;;;;;;3.08;2.00;;;22.00;46.10;;;;;;5207984;28;20033;-75
2020/12/24 09:36:04;;;;;;;3.35;2.22;;;22.00;47.30;;;;;;5249324;28;20029;-75
2020/12/24 09:38:34;;;;;;;2.95;2.10;;;22.10;46.70;;;;;;5210967;28;20024;-75
2020/12/24 09:41:05;;;;;;;3.67;2.17;;;22.10;47.70;;;;;;5214961;28;20030;-75
2020/12/24 09:43:35;;;;;;;3.03;2.00;;;22.10;48.30;;;;;;5228009;28;20068;-75
2020/12/24 09:46:06;;;;;;;2.40;1.90;;;22.10;47.40;;;;;;5216370;28;20083;-75
2020/12/24 09:48:36;;;;;;;4.20;2.65;;;22.10;47.60;;;;;;5212272;28;20497;-76
2020/12/24 09:51:07;;;;;;;5.25;3.08;;;22.10;46.90;;;;;;5226477;28;20456;-75
2020/12/24 09:53:38;;;;;;;4.32;3.38;;;22.10;47.30;;;;;;5214609;28;20087;-76
2020/12/24 09:56:08;;;;;;;6.63;3.80;;;22.10;49.40;;;;;;5209429;28;20079;-75
2020/12/24 09:58:39;;;;;;;4.50;3.33;;;22.20;48.90;;;;;;5229450;28;20052;-76
2020/12/24 10:01:11;;;;;;;7.63;3.72;;;22.20;46.40;;;;;;5207792;28;20039;-76
2020/12/24 10:03:42;;;;;;;5.85;4.32;;;22.20;47.80;;;;;;5224190;28;20029;-76
2020/12/24 10:06:13;;;;;;;6.13;4.20;;;22.20;47.80;;;;;;5188472;28;20047;-76
2020/12/24 10:08:43;;;;;;;6.57;4.10;;;21.90;47.10;;;;;;5183296;28;20021;-77
2020/12/24 10:11:17;;;;;;;5.13;4.00;;;22.00;45.10;;;;;;5198270;28;20026;-77
2020/12/24 10:13:47;;;;;;;7.95;4.78;;;21.80;44.40;;;;;;5190201;28;20491;-78
2020/12/24 10:16:24;;;;;;;6.68;4.50;;;21.70;45.00;;;;;;5202350;28;20095;-78
2020/12/24 10:18:55;;;;;;;6.88;4.25;;;21.70;45.30;;;;;;5190320;28;20106;-77
2020/12/24 10:21:26;;;;;;;5.88;4.07;;;21.70;45.10;;;;;;5188917;28;20105;-78
2020/12/24 10:23:56;;;;;;;4.95;3.85;;;21.80;47.10;;;;;;5206642;28;20033;-77
2020/12/24 10:26:27;;;;;;;4.85;3.47;;;21.90;46.90;;;;;;5195594;28;20060;-79
2020/12/24 10:28:57;;;;;;;6.45;3.95;;;22.00;47.30;;;;;;5189250;28;20037;-80
2020/12/24 10:31:28;;;;;;;6.82;4.20;;;22.00;46.80;;;;;;5185435;28;20390;-78
2020/12/24 10:33:58;;;;;;;8.63;4.68;;;22.00;45.60;;;;;;5233910;28;20037;-78
2020/12/24 10:36:29;;;;;;;7.75;4.28;;;22.00;45.60;;;;;;5202615;28;20066;-80
2020/12/24 10:39:01;;;;;;;7.57;4.18;;;22.10;46.40;;;;;;5208421;28;20099;-79
2020/12/24 10:41:31;;;;;;;7.50;4.57;;;22.10;46.50;;;;;;5221827;28;20073;-76
2020/12/24 10:44:02;;;;;;;6.57;4.43;;;22.10;46.00;;;;;;5222675;28;20493;-77
2020/12/24 10:46:33;;;;;;;6.85;4.63;;;22.20;45.10;;;;;;5208137;28;20447;-77
2020/12/24 10:49:04;;;;;;;5.90;4.63;;;22.10;45.90;;;;;;5199514;28;20067;-77
2020/12/24 10:51:34;;;;;;;6.75;4.35;;;22.10;45.70;;;;;;5224861;28;20030;-76
2020/12/24 10:54:05;;;;;;;6.25;4.18;;;22.20;46.30;;;;;;5188215;28;20060;-78
2020/12/24 10:56:35;;;;;;;5.93;4.43;;;22.10;45.80;;;;;;5205616;28;20112;-77
2020/12/24 10:59:06;;;;;;;5.78;4.00;;;22.20;47.60;;;;;;5190413;28;20057;-78
2020/12/24 11:01:36;;;;;;;6.25;4.63;;;22.20;48.10;;;;;;5204535;28;20151;-76
2020/12/24 11:04:08;;;;;;;19.17;4.55;;;22.20;46.40;;;;;;5183689;28;20459;-77
2020/12/24 11:06:42;;;;;;;9.05;5.57;;;22.20;44.60;;;;;;5188371;28;20466;-75
2020/12/24 11:09:13;;;;;;;8.23;4.25;;;22.20;44.20;;;;;;5205197;28;20029;-77
2020/12/24 11:11:43;;;;;;;5.45;3.50;;;22.30;46.40;;;;;;5193775;28;20036;-76
2020/12/24 11:14:14;;;;;;;8.98;4.78;;;22.20;48.50;;;;;;5219849;28;20036;-76
2020/12/24 11:16:44;;;;;;;10.40;4.57;;;22.20;48.80;;;;;;5187831;28;20033;-76
2020/12/24 11:19:15;;;;;;;7.45;4.28;;;22.20;48.10;;;;;;5189323;28;20030;-76
2020/12/24 11:21:45;;;;;;;6.32;3.85;;;22.20;48.30;;;;;;5215099;28;20025;-77
2020/12/24 11:24:16;;;;;;;8.73;5.05;;;22.20;46.40;;;;;;5210392;28;20431;-77
2020/12/24 11:26:46;;;;;;;5.65;3.63;;;22.20;47.50;;;;;;5207016;28;20500;-76
2020/12/24 11:29:17;;;;;;;6.68;3.17;;;22.20;48.20;;;;;;5207581;28;20037;-76
2020/12/24 11:31:47;;;;;;;7.28;5.10;;;22.20;49.20;;;;;;5226316;28;20034;-77
2020/12/24 11:34:18;;;;;;;5.53;4.50;;;22.20;44.30;;;;;;5205003;28;20090;-77
2020/12/24 11:36:48;;;;;;;6.90;3.67;;;22.20;45.40;;;;;;5205951;28;20030;-76
2020/12/24 11:39:19;;;;;;;7.07;4.25;;;22.20;47.20;;;;;;5172924;28;20029;-77
2020/12/24 11:41:49;;;;;;;6.18;4.00;;;22.20;46.80;;;;;;5204333;28;20021;-77
2020/12/24 11:44:20;;;;;;;4.65;2.90;;;22.20;47.30;;;;;;5204400;28;20018;-77
2020/12/24 11:46:50;;;;;;;6.53;4.00;;;22.10;47.30;;;;;;5189095;28;20120;-77
2020/12/24 11:49:21;;;;;;;6.20;3.72;;;22.20;47.20;;;;;;5190700;28;20031;-77
2020/12/24 11:51:51;;;;;;;6.80;3.83;;;22.20;46.20;;;;;;5194656;28;20035;-77
2020/12/24 11:54:22;;;;;;;4.82;3.20;;;22.20;45.40;;;;;;5217704;28;20116;-76
2020/12/24 11:56:52;;;;;;;5.43;3.63;;;22.20;46.00;;;;;;5234954;28;20029;-76
2020/12/24 11:59:23;;;;;;;7.82;3.15;;;22.20;45.70;;;;;;5227240;28;20031;-76
2020/12/24 12:01:53;;;;;;;4.07;2.90;;;22.20;47.60;;;;;;5244372;28;20032;-76
2020/12/24 12:04:24;;;;;;;5.45;3.28;;;22.20;46.50;;;;;;5224846;28;20033;-76
2020/12/24 12:06:54;;;;;;;5.70;2.65;;;22.20;47.00;;;;;;5202729;28;20057;-76
2020/12/24 12:09:25;;;;;;;8.18;3.00;;;22.20;47.00;;;;;;5200232;28;20068;-76
2020/12/24 12:11:55;;;;;;;4.13;2.58;;;22.20;47.50;;;;;;5216742;28;20492;-76
2020/12/24 12:14:26;;;;;;;5.43;2.90;;;22.20;45.50;;;;;;5185668;28;20040;-77
2020/12/24 12:16:56;;;;;;;7.53;2.67;;;22.30;46.10;;;;;;5202951;28;20614;-77
2020/12/24 12:19:27;;;;;;;4.13;2.25;;;22.30;46.40;;;;;;5237602;28;20060;-76
2020/12/24 12:21:57;;;;;;;4.70;2.67;;;22.30;46.30;;;;;;5206251;28;20025;-78
2020/12/24 12:24:28;;;;;;;4.32;2.45;;;22.40;47.50;;;;;;5206837;28;20021;-76
2020/12/24 12:26:58;;;;;;;5.82;2.58;;;21.30;44.10;;;;;;5206584;28;20045;-77
2020/12/24 12:29:29;;;;;;;5.72;2.65;;;21.90;46.60;;;;;;5224184;28;20043;-77
2020/12/24 12:31:59;;;;;;;5.78;3.40;;;22.20;46.00;;;;;;5206262;28;20071;-77
2020/12/24 12:34:30;;;;;;;7.07;3.10;;;22.30;46.90;;;;;;5207956;28;20597;-76
2020/12/24 12:37:00;;;;;;;8.30;3.30;;;22.40;47.00;;;;;;5223508;28;20029;-77
2020/12/24 12:39:31;;;;;;;8.05;3.33;;;22.50;47.40;;;;;;5209476;28;20025;-77
2020/12/24 12:42:02;;;;;;;7.07;3.70;;;22.50;46.60;;;;;;5225001;28;20407;-77
2020/12/24 12:44:32;;;;;;;7.40;3.67;;;22.60;46.10;;;;;;5227350;28;20032;-77
2020/12/24 12:47:03;;;;;;;8.93;3.67;;;22.60;46.50;;;;;;5191940;28;20411;-77
2020/12/24 12:49:33;;;;;;;10.27;4.60;;;22.70;46.60;;;;;;5205421;28;20045;-77
2020/12/24 12:52:04;;;;;;;6.72;4.10;;;22.70;46.70;;;;;;5213294;28;20033;-77
2020/12/24 12:54:34;;;;;;;10.00;4.60;;;22.70;46.80;;;;;;5227023;28;20029;-77
2020/12/24 12:57:05;;;;;;;10.27;4.25;;;22.80;46.80;;;;;;5212722;28;20030;-77
2020/12/24 12:59:35;;;;;;;6.45;3.67;;;22.80;46.10;;;;;;5172514;28;20100;-77
2020/12/24 13:02:06;;;;;;;7.43;3.80;;;22.90;46.50;;;;;;5186478;28;20026;-76
2020/12/24 13:04:36;;;;;;;6.80;3.67;;;22.90;46.20;;;;;;5192035;28;20132;-76
2020/12/24 13:07:07;;;;;;;7.70;3.92;;;22.90;45.00;;;;;;5205805;28;20025;-77
2020/12/24 13:09:37;;;;;;;9.60;3.25;;;23.10;45.30;;;;;;5195353;28;20480;-77
2020/12/24 13:12:08;;;;;;;6.78;3.58;;;23.30;44.60;;;;;;5195030;28;20026;-77